Terminal Aerodrome Forecast
Issued by NWS

Home | Current Version | Previous Version | Text Only | Print | Product List | Glossary On
Versions: 1 2 3 4 5 6 7 8 9 10 11 12 13 14 15 16 17 18 19
000
FTUS41 KGYX 272320
TAFRKD
TAF
KRKD 272320Z 2800/2824 01003KT P6SM OVC007
     FM280300 03004KT P6SM OVC015
     FM280900 03009KT P6SM OVC004
     FM281200 03011KT P6SM OVC007 PROB30 2812/2815 P6SM -SN OVC007
     FM281500 02010KT P6SM OVC015
      AMD LTD TO CLD VIS AND WIND=

USA.gov is the U.S. government's official web portal to all federal, state and local government web resources and services.